sensor_id;sensor_type;location;lat;lon;timestamp;temperature;humidity
23120;DHT22;11729;50.836;4.330;2023-02-22T00:00:20;6.20;99.90
23120;DHT22;11729;50.836;4.330;2023-02-22T00:03:05;6.30;99.90
23120;DHT22;11729;50.836;4.330;2023-02-22T00:05:32;6.50;99.90
23120;DHT22;11729;50.836;4.330;2023-02-22T00:07:58;6.50;99.90
23120;DHT22;11729;50.836;4.330;2023-02-22T00:10:25;6.50;99.90
23120;DHT22;11729;50.836;4.330;2023-02-22T00:12:53;6.60;99.90
23120;DHT22;11729;50.836;4.330;2023-02-22T00:15:22;6.70;99.90
23120;DHT22;11729;50.836;4.330;2023-02-22T00:17:52;6.80;99.90
23120;DHT22;11729;50.836;4.330;2023-02-22T00:20:17;7.00;99.90
23120;DHT22;11729;50.836;4.330;2023-02-22T00:22:45;7.10;99.90
23120;DHT22;11729;50.836;4.330;2023-02-22T00:25:12;7.20;99.90
23120;DHT22;11729;50.836;4.330;2023-02-22T00:27:39;7.20;99.90
23120;DHT22;11729;50.836;4.330;2023-02-22T00:30:07;7.20;99.90
23120;DHT22;11729;50.836;4.330;2023-02-22T00:32:34;7.00;99.90
23120;DHT22;11729;50.836;4.330;2023-02-22T00:35:00;6.80;99.90
23120;DHT22;11729;50.836;4.330;2023-02-22T00:37:26;6.60;99.90
23120;DHT22;11729;50.836;4.330;2023-02-22T00:39:56;6.50;99.90
23120;DHT22;11729;50.836;4.330;2023-02-22T00:42:22;6.30;99.90
23120;DHT22;11729;50.836;4.330;2023-02-22T00:44:48;6.30;99.90
23120;DHT22;11729;50.836;4.330;2023-02-22T00:47:14;6.30;99.90
23120;DHT22;11729;50.836;4.330;2023-02-22T00:49:39;6.20;99.90
23120;DHT22;11729;50.836;4.330;2023-02-22T00:52:05;6.30;99.90
23120;DHT22;11729;50.836;4.330;2023-02-22T00:54:31;6.40;99.90
23120;DHT22;11729;50.836;4.330;2023-02-22T00:56:57;6.70;99.90
23120;DHT22;11729;50.836;4.330;2023-02-22T00:59:23;6.70;99.90
23120;DHT22;11729;50.836;4.330;2023-02-22T01:01:49;6.70;99.90
23120;DHT22;11729;50.836;4.330;2023-02-22T01:04:14;6.70;99.90
23120;DHT22;11729;50.836;4.330;2023-02-22T01:06:40;6.60;99.90
23120;DHT22;11729;50.836;4.330;2023-02-22T01:09:05;6.60;99.90
23120;DHT22;11729;50.836;4.330;2023-02-22T01:11:32;6.60;99.90
23120;DHT22;11729;50.836;4.330;2023-02-22T01:13:58;6.70;99.90
23120;DHT22;11729;50.836;4.330;2023-02-22T01:16:24;6.60;99.90
23120;DHT22;11729;50.836;4.330;2023-02-22T01:18:50;6.60;99.90
23120;DHT22;11729;50.836;4.330;2023-02-22T01:21:16;6.50;99.90
23120;DHT22;11729;50.836;4.330;2023-02-22T01:23:44;6.50;99.90
23120;DHT22;11729;50.836;4.330;2023-02-22T01:26:10;6.50;99.90
23120;DHT22;11729;50.836;4.330;2023-02-22T01:28:37;6.60;99.90
23120;DHT22;11729;50.836;4.330;2023-02-22T01:31:03;6.40;99.90
23120;DHT22;11729;50.836;4.330;2023-02-22T01:33:28;6.30;99.90
23120;DHT22;11729;50.836;4.330;2023-02-22T01:35:54;6.50;99.90
23120;DHT22;11729;50.836;4.330;2023-02-22T01:38:20;6.50;99.90
23120;DHT22;11729;50.836;4.330;2023-02-22T01:40:47;6.50;99.90
23120;DHT22;11729;50.836;4.330;2023-02-22T01:43:25;6.40;99.90
23120;DHT22;11729;50.836;4.330;2023-02-22T01:48:42;6.30;99.90
23120;DHT22;11729;50.836;4.330;2023-02-22T01:51:15;6.50;99.90
23120;DHT22;11729;50.836;4.330;2023-02-22T01:53:53;6.50;99.90
23120;DHT22;11729;50.836;4.330;2023-02-22T01:56:21;6.60;99.90
23120;DHT22;11729;50.836;4.330;2023-02-22T01:58:51;6.70;99.90
23120;DHT22;11729;50.836;4.330;2023-02-22T02:01:20;6.80;99.90
23120;DHT22;11729;50.836;4.330;2023-02-22T02:03:48;6.70;99.90
23120;DHT22;11729;50.836;4.330;2023-02-22T02:06:15;6.90;99.90
23120;DHT22;11729;50.836;4.330;2023-02-22T02:09:14;7.00;99.90
23120;DHT22;11729;50.836;4.330;2023-02-22T02:11:40;7.00;99.90
23120;DHT22;11729;50.836;4.330;2023-02-22T02:14:08;7.10;99.90
23120;DHT22;11729;50.836;4.330;2023-02-22T02:16:40;7.20;99.90
23120;DHT22;11729;50.836;4.330;2023-02-22T02:19:14;7.20;99.90
23120;DHT22;11729;50.836;4.330;2023-02-22T02:21:58;7.30;99.90
23120;DHT22;11729;50.836;4.330;2023-02-22T02:27:21;7.20;99.90
23120;DHT22;11729;50.836;4.330;2023-02-22T02:35:45;7.00;99.90
23120;DHT22;11729;50.836;4.330;2023-02-22T02:38:21;7.10;99.90
23120;DHT22;11729;50.836;4.330;2023-02-22T02:44:03;6.90;99.90
23120;DHT22;11729;50.836;4.330;2023-02-22T02:46:36;6.80;99.90
23120;DHT22;11729;50.836;4.330;2023-02-22T02:49:07;6.90;99.90
23120;DHT22;11729;50.836;4.330;2023-02-22T02:51:43;6.80;99.90
23120;DHT22;11729;50.836;4.330;2023-02-22T02:54:12;6.60;99.90
23120;DHT22;11729;50.836;4.330;2023-02-22T02:56:40;6.30;99.90
23120;DHT22;11729;50.836;4.330;2023-02-22T03:04:35;6.30;99.90
23120;DHT22;11729;50.836;4.330;2023-02-22T03:18:26;6.70;99.90
23120;DHT22;11729;50.836;4.330;2023-02-22T03:24:09;6.80;99.90
23120;DHT22;11729;50.836;4.330;2023-02-22T03:26:52;6.80;99.90
23120;DHT22;11729;50.836;4.330;2023-02-22T03:29:21;6.80;99.90
23120;DHT22;11729;50.836;4.330;2023-02-22T03:31:53;6.90;99.90
23120;DHT22;11729;50.836;4.330;2023-02-22T03:34:35;6.90;99.90
23120;DHT22;11729;50.836;4.330;2023-02-22T03:37:05;7.00;99.90
23120;DHT22;11729;50.836;4.330;2023-02-22T03:39:37;7.00;99.90
23120;DHT22;11729;50.836;4.330;2023-02-22T03:42:09;6.90;99.90
23120;DHT22;11729;50.836;4.330;2023-02-22T03:44:37;6.80;99.90
23120;DHT22;11729;50.836;4.330;2023-02-22T03:47:09;6.80;99.90
23120;DHT22;11729;50.836;4.330;2023-02-22T03:49:48;6.80;99.90
23120;DHT22;11729;50.836;4.330;2023-02-22T03:52:15;6.70;99.90
23120;DHT22;11729;50.836;4.330;2023-02-22T03:54:42;6.50;99.90
23120;DHT22;11729;50.836;4.330;2023-02-22T03:57:16;6.70;99.90
23120;DHT22;11729;50.836;4.330;2023-02-22T03:59:44;6.60;99.90
23120;DHT22;11729;50.836;4.330;2023-02-22T04:02:10;6.60;99.90
23120;DHT22;11729;50.836;4.330;2023-02-22T04:04:36;6.60;99.90
23120;DHT22;11729;50.836;4.330;2023-02-22T04:07:02;6.80;99.90
23120;DHT22;11729;50.836;4.330;2023-02-22T04:09:27;7.00;99.90
23120;DHT22;11729;50.836;4.330;2023-02-22T04:11:53;7.10;99.90
23120;DHT22;11729;50.836;4.330;2023-02-22T04:14:19;7.10;99.90
23120;DHT22;11729;50.836;4.330;2023-02-22T04:16:44;7.10;99.90
23120;DHT22;11729;50.836;4.330;2023-02-22T04:19:10;7.10;99.90
23120;DHT22;11729;50.836;4.330;2023-02-22T04:21:35;7.10;99.90
23120;DHT22;11729;50.836;4.330;2023-02-22T04:24:01;7.20;99.90
23120;DHT22;11729;50.836;4.330;2023-02-22T04:26:26;7.20;99.90
23120;DHT22;11729;50.836;4.330;2023-02-22T04:28:52;7.30;99.90
23120;DHT22;11729;50.836;4.330;2023-02-22T04:31:18;7.30;99.90
23120;DHT22;11729;50.836;4.330;2023-02-22T04:33:43;7.20;99.90
23120;DHT22;11729;50.836;4.330;2023-02-22T04:36:09;7.30;99.90
23120;DHT22;11729;50.836;4.330;2023-02-22T04:38:35;7.30;99.90
23120;DHT22;11729;50.836;4.330;2023-02-22T04:41:01;7.40;99.90
23120;DHT22;11729;50.836;4.330;2023-02-22T04:43:26;7.30;99.90
23120;DHT22;11729;50.836;4.330;2023-02-22T04:45:52;7.40;99.90
23120;DHT22;11729;50.836;4.330;2023-02-22T04:48:19;7.40;99.90
23120;DHT22;11729;50.836;4.330;2023-02-22T04:50:44;7.10;99.90
23120;DHT22;11729;50.836;4.330;2023-02-22T04:53:11;7.00;99.90
23120;DHT22;11729;50.836;4.330;2023-02-22T04:55:37;7.00;99.90
23120;DHT22;11729;50.836;4.330;2023-02-22T04:58:03;7.20;99.90
23120;DHT22;11729;50.836;4.330;2023-02-22T05:00:28;7.20;99.90
23120;DHT22;11729;50.836;4.330;2023-02-22T05:02:55;7.10;99.90
23120;DHT22;11729;50.836;4.330;2023-02-22T05:05:21;7.20;99.90
23120;DHT22;11729;50.836;4.330;2023-02-22T05:07:47;7.40;99.90
23120;DHT22;11729;50.836;4.330;2023-02-22T05:10:14;7.30;99.90
23120;DHT22;11729;50.836;4.330;2023-02-22T05:12:41;7.20;99.90
23120;DHT22;11729;50.836;4.330;2023-02-22T05:15:07;7.30;99.90
23120;DHT22;11729;50.836;4.330;2023-02-22T05:17:34;7.40;99.90
23120;DHT22;11729;50.836;4.330;2023-02-22T05:20:00;7.50;99.90
23120;DHT22;11729;50.836;4.330;2023-02-22T05:22:25;7.30;99.90
23120;DHT22;11729;50.836;4.330;2023-02-22T05:24:51;7.30;99.90
23120;DHT22;11729;50.836;4.330;2023-02-22T05:27:18;7.20;99.90
23120;DHT22;11729;50.836;4.330;2023-02-22T05:29:43;7.30;99.90
23120;DHT22;11729;50.836;4.330;2023-02-22T05:32:09;7.40;99.90
23120;DHT22;11729;50.836;4.330;2023-02-22T05:34:37;7.50;99.90
23120;DHT22;11729;50.836;4.330;2023-02-22T05:37:03;7.50;99.90
23120;DHT22;11729;50.836;4.330;2023-02-22T05:39:29;7.30;99.90
23120;DHT22;11729;50.836;4.330;2023-02-22T05:41:55;7.10;99.90
23120;DHT22;11729;50.836;4.330;2023-02-22T05:44:22;7.00;99.90
23120;DHT22;11729;50.836;4.330;2023-02-22T05:46:47;7.10;99.90
23120;DHT22;11729;50.836;4.330;2023-02-22T05:49:13;7.10;99.90
23120;DHT22;11729;50.836;4.330;2023-02-22T05:51:38;7.10;99.90
23120;DHT22;11729;50.836;4.330;2023-02-22T05:54:06;7.00;99.90
23120;DHT22;11729;50.836;4.330;2023-02-22T05:56:33;7.10;99.90
23120;DHT22;11729;50.836;4.330;2023-02-22T05:59:00;7.10;99.90
23120;DHT22;11729;50.836;4.330;2023-02-22T06:01:26;7.00;99.90
23120;DHT22;11729;50.836;4.330;2023-02-22T06:03:52;7.00;99.90
23120;DHT22;11729;50.836;4.330;2023-02-22T06:06:18;7.30;99.90
23120;DHT22;11729;50.836;4.330;2023-02-22T06:08:46;7.30;99.90
23120;DHT22;11729;50.836;4.330;2023-02-22T06:11:12;7.40;99.90
23120;DHT22;11729;50.836;4.330;2023-02-22T06:13:38;7.50;99.90
23120;DHT22;11729;50.836;4.330;2023-02-22T06:16:04;7.60;99.90
23120;DHT22;11729;50.836;4.330;2023-02-22T06:18:32;7.70;99.90
23120;DHT22;11729;50.836;4.330;2023-02-22T06:20:59;7.70;99.90
23120;DHT22;11729;50.836;4.330;2023-02-22T06:23:26;7.70;99.90
23120;DHT22;11729;50.836;4.330;2023-02-22T06:25:51;7.70;99.90
23120;DHT22;11729;50.836;4.330;2023-02-22T06:28:17;7.80;99.90
23120;DHT22;11729;50.836;4.330;2023-02-22T06:30:43;7.80;99.90
23120;DHT22;11729;50.836;4.330;2023-02-22T06:33:09;7.80;99.90
23120;DHT22;11729;50.836;4.330;2023-02-22T06:35:35;7.70;99.90
23120;DHT22;11729;50.836;4.330;2023-02-22T06:38:01;7.80;99.90
23120;DHT22;11729;50.836;4.330;2023-02-22T06:40:26;7.80;99.90
23120;DHT22;11729;50.836;4.330;2023-02-22T06:42:54;7.80;99.90
23120;DHT22;11729;50.836;4.330;2023-02-22T06:45:21;7.70;99.90
23120;DHT22;11729;50.836;4.330;2023-02-22T06:47:47;7.80;99.90
23120;DHT22;11729;50.836;4.330;2023-02-22T06:50:25;7.70;99.90
23120;DHT22;11729;50.836;4.330;2023-02-22T06:52:53;7.70;99.90
23120;DHT22;11729;50.836;4.330;2023-02-22T06:55:22;7.70;99.90
23120;DHT22;11729;50.836;4.330;2023-02-22T06:57:48;7.70;99.90
23120;DHT22;11729;50.836;4.330;2023-02-22T07:00:18;7.60;99.90
23120;DHT22;11729;50.836;4.330;2023-02-22T07:02:45;7.60;99.90
23120;DHT22;11729;50.836;4.330;2023-02-22T07:05:14;7.60;99.90
23120;DHT22;11729;50.836;4.330;2023-02-22T07:07:41;7.60;99.90
23120;DHT22;11729;50.836;4.330;2023-02-22T07:10:13;7.60;99.90
23120;DHT22;11729;50.836;4.330;2023-02-22T07:12:40;7.60;99.90
23120;DHT22;11729;50.836;4.330;2023-02-22T07:15:07;7.70;99.90
23120;DHT22;11729;50.836;4.330;2023-02-22T07:17:32;7.80;99.90
23120;DHT22;11729;50.836;4.330;2023-02-22T07:19:58;7.80;99.90
23120;DHT22;11729;50.836;4.330;2023-02-22T07:22:24;7.80;99.90
23120;DHT22;11729;50.836;4.330;2023-02-22T07:24:49;7.90;99.90
23120;DHT22;11729;50.836;4.330;2023-02-22T07:27:15;7.90;99.90
23120;DHT22;11729;50.836;4.330;2023-02-22T07:29:42;7.90;99.90
23120;DHT22;11729;50.836;4.330;2023-02-22T07:32:08;8.00;99.90
23120;DHT22;11729;50.836;4.330;2023-02-22T07:34:34;8.10;99.90
23120;DHT22;11729;50.836;4.330;2023-02-22T07:36:59;8.20;99.90
23120;DHT22;11729;50.836;4.330;2023-02-22T07:39:25;8.30;99.90
23120;DHT22;11729;50.836;4.330;2023-02-22T07:41:51;8.50;99.90
23120;DHT22;11729;50.836;4.330;2023-02-22T07:44:18;8.60;99.90
23120;DHT22;11729;50.836;4.330;2023-02-22T07:46:47;8.70;99.90
23120;DHT22;11729;50.836;4.330;2023-02-22T07:49:13;8.90;99.90
23120;DHT22;11729;50.836;4.330;2023-02-22T07:51:39;9.00;99.90
23120;DHT22;11729;50.836;4.330;2023-02-22T07:54:05;9.10;99.90
23120;DHT22;11729;50.836;4.330;2023-02-22T07:56:30;9.30;99.90
23120;DHT22;11729;50.836;4.330;2023-02-22T07:58:56;9.20;99.90
23120;DHT22;11729;50.836;4.330;2023-02-22T08:01:21;9.30;99.90
23120;DHT22;11729;50.836;4.330;2023-02-22T08:03:48;9.40;99.90
23120;DHT22;11729;50.836;4.330;2023-02-22T08:06:14;9.40;99.90
23120;DHT22;11729;50.836;4.330;2023-02-22T08:08:40;9.50;99.90
23120;DHT22;11729;50.836;4.330;2023-02-22T08:11:07;9.60;99.90
23120;DHT22;11729;50.836;4.330;2023-02-22T08:13:33;9.70;99.90
23120;DHT22;11729;50.836;4.330;2023-02-22T08:15:58;9.60;99.90
23120;DHT22;11729;50.836;4.330;2023-02-22T08:18:24;9.50;99.90
23120;DHT22;11729;50.836;4.330;2023-02-22T08:20:51;9.70;99.90
23120;DHT22;11729;50.836;4.330;2023-02-22T08:23:19;9.70;99.90
23120;DHT22;11729;50.836;4.330;2023-02-22T08:25:44;9.80;99.90
23120;DHT22;11729;50.836;4.330;2023-02-22T08:28:13;9.90;99.90
23120;DHT22;11729;50.836;4.330;2023-02-22T08:30:40;10.10;99.90
23120;DHT22;11729;50.836;4.330;2023-02-22T08:33:07;10.20;99.90
23120;DHT22;11729;50.836;4.330;2023-02-22T08:35:33;10.30;99.90
23120;DHT22;11729;50.836;4.330;2023-02-22T08:38:02;10.40;99.90
23120;DHT22;11729;50.836;4.330;2023-02-22T08:40:30;10.50;99.90
23120;DHT22;11729;50.836;4.330;2023-02-22T08:42:56;10.70;99.90
23120;DHT22;11729;50.836;4.330;2023-02-22T08:45:22;10.70;99.90
23120;DHT22;11729;50.836;4.330;2023-02-22T08:47:48;10.80;99.90
23120;DHT22;11729;50.836;4.330;2023-02-22T08:50:27;10.90;99.90
23120;DHT22;11729;50.836;4.330;2023-02-22T08:52:55;11.00;99.90
23120;DHT22;11729;50.836;4.330;2023-02-22T08:55:24;11.00;99.90
23120;DHT22;11729;50.836;4.330;2023-02-22T08:57:50;11.00;99.90
23120;DHT22;11729;50.836;4.330;2023-02-22T09:00:18;11.00;99.90
23120;DHT22;11729;50.836;4.330;2023-02-22T09:02:44;10.90;99.90
23120;DHT22;11729;50.836;4.330;2023-02-22T09:05:10;10.90;99.90
23120;DHT22;11729;50.836;4.330;2023-02-22T09:07:35;11.00;99.90
23120;DHT22;11729;50.836;4.330;2023-02-22T09:10:01;11.00;99.90
23120;DHT22;11729;50.836;4.330;2023-02-22T09:12:27;11.10;99.90
23120;DHT22;11729;50.836;4.330;2023-02-22T09:14:52;10.90;99.90
23120;DHT22;11729;50.836;4.330;2023-02-22T09:17:18;10.90;99.90
23120;DHT22;11729;50.836;4.330;2023-02-22T09:19:44;11.00;99.90
23120;DHT22;11729;50.836;4.330;2023-02-22T09:22:10;11.00;99.90
23120;DHT22;11729;50.836;4.330;2023-02-22T09:24:36;11.00;99.90
23120;DHT22;11729;50.836;4.330;2023-02-22T09:27:01;11.00;99.90
23120;DHT22;11729;50.836;4.330;2023-02-22T09:29:29;11.10;99.90
23120;DHT22;11729;50.836;4.330;2023-02-22T09:31:56;11.10;99.90
23120;DHT22;11729;50.836;4.330;2023-02-22T09:34:22;11.20;99.90
23120;DHT22;11729;50.836;4.330;2023-02-22T09:36:54;11.30;99.90
23120;DHT22;11729;50.836;4.330;2023-02-22T09:39:22;11.30;99.90
23120;DHT22;11729;50.836;4.330;2023-02-22T09:44:46;11.30;99.90
23120;DHT22;11729;50.836;4.330;2023-02-22T09:47:19;11.30;99.90
23120;DHT22;11729;50.836;4.330;2023-02-22T09:50:01;11.40;99.90
23120;DHT22;11729;50.836;4.330;2023-02-22T09:52:31;11.50;99.90
23120;DHT22;11729;50.836;4.330;2023-02-22T09:55:35;11.50;99.90
23120;DHT22;11729;50.836;4.330;2023-02-22T09:58:09;11.60;99.90
23120;DHT22;11729;50.836;4.330;2023-02-22T10:00:39;11.80;99.90
23120;DHT22;11729;50.836;4.330;2023-02-22T10:03:50;11.80;99.90
23120;DHT22;11729;50.836;4.330;2023-02-22T10:06:11;11.80;99.90
23120;DHT22;11729;50.836;4.330;2023-02-22T10:08:40;11.90;99.90
23120;DHT22;11729;50.836;4.330;2023-02-22T10:24:54;12.60;99.90
23120;DHT22;11729;50.836;4.330;2023-02-22T10:27:37;12.80;99.90
23120;DHT22;11729;50.836;4.330;2023-02-22T10:30:13;12.70;99.90
23120;DHT22;11729;50.836;4.330;2023-02-22T10:32:43;12.90;99.90
23120;DHT22;11729;50.836;4.330;2023-02-22T10:35:27;13.10;99.90
23120;DHT22;11729;50.836;4.330;2023-02-22T10:37:58;12.90;99.90
23120;DHT22;11729;50.836;4.330;2023-02-22T10:40:27;13.10;99.90
23120;DHT22;11729;50.836;4.330;2023-02-22T10:43:06;13.00;99.90
23120;DHT22;11729;50.836;4.330;2023-02-22T10:45:33;13.00;99.90
23120;DHT22;11729;50.836;4.330;2023-02-22T10:48:07;13.10;99.90
23120;DHT22;11729;50.836;4.330;2023-02-22T10:50:38;13.20;99.90
23120;DHT22;11729;50.836;4.330;2023-02-22T10:53:08;13.10;99.90
23120;DHT22;11729;50.836;4.330;2023-02-22T10:55:34;13.10;99.90
23120;DHT22;11729;50.836;4.330;2023-02-22T10:58:06;13.10;99.90
23120;DHT22;11729;50.836;4.330;2023-02-22T11:00:37;13.30;99.90
23120;DHT22;11729;50.836;4.330;2023-02-22T11:03:17;13.10;99.90
23120;DHT22;11729;50.836;4.330;2023-02-22T11:05:43;13.20;99.90
23120;DHT22;11729;50.836;4.330;2023-02-22T11:10:50;12.90;99.90
23120;DHT22;11729;50.836;4.330;2023-02-22T11:13:29;13.00;99.90
23120;DHT22;11729;50.836;4.330;2023-02-22T11:18:47;13.20;99.90
23120;DHT22;11729;50.836;4.330;2023-02-22T11:21:20;13.40;99.90
23120;DHT22;11729;50.836;4.330;2023-02-22T11:23:47;13.30;99.90
23120;DHT22;11729;50.836;4.330;2023-02-22T11:26:17;13.20;99.90
23120;DHT22;11729;50.836;4.330;2023-02-22T11:28:51;13.10;99.90
23120;DHT22;11729;50.836;4.330;2023-02-22T11:31:22;13.20;99.90
23120;DHT22;11729;50.836;4.330;2023-02-22T11:33:59;13.10;99.90
23120;DHT22;11729;50.836;4.330;2023-02-22T11:36:39;13.20;99.90
23120;DHT22;11729;50.836;4.330;2023-02-22T11:41:49;13.60;99.90
23120;DHT22;11729;50.836;4.330;2023-02-22T11:44:29;13.60;99.90
23120;DHT22;11729;50.836;4.330;2023-02-22T11:46:59;13.80;99.90
23120;DHT22;11729;50.836;4.330;2023-02-22T11:49:34;13.80;99.90
23120;DHT22;11729;50.836;4.330;2023-02-22T11:52:23;13.70;99.90
23120;DHT22;11729;50.836;4.330;2023-02-22T11:55:25;14.00;99.90
23120;DHT22;11729;50.836;4.330;2023-02-22T12:00:50;14.30;99.90
23120;DHT22;11729;50.836;4.330;2023-02-22T12:03:45;14.50;99.90
23120;DHT22;11729;50.836;4.330;2023-02-22T12:09:21;14.60;99.90
23120;DHT22;11729;50.836;4.330;2023-02-22T12:17:51;14.90;99.90
23120;DHT22;11729;50.836;4.330;2023-02-22T12:20:26;14.90;99.90
23120;DHT22;11729;50.836;4.330;2023-02-22T12:23:19;14.90;99.90
23120;DHT22;11729;50.836;4.330;2023-02-22T12:26:48;14.80;99.90
23120;DHT22;11729;50.836;4.330;2023-02-22T12:28:55;14.60;99.90
23120;DHT22;11729;50.836;4.330;2023-02-22T12:31:35;14.50;99.90
23120;DHT22;11729;50.836;4.330;2023-02-22T12:34:27;14.50;99.90
23120;DHT22;11729;50.836;4.330;2023-02-22T12:36:55;14.30;99.90
23120;DHT22;11729;50.836;4.330;2023-02-22T12:39:55;14.10;99.90
23120;DHT22;11729;50.836;4.330;2023-02-22T12:48:14;14.10;99.90
23120;DHT22;11729;50.836;4.330;2023-02-22T12:50:45;13.90;99.90
23120;DHT22;11729;50.836;4.330;2023-02-22T12:53:18;13.90;99.90
23120;DHT22;11729;50.836;4.330;2023-02-22T12:55:50;13.90;99.90
23120;DHT22;11729;50.836;4.330;2023-02-22T12:58:29;13.90;99.90
23120;DHT22;11729;50.836;4.330;2023-02-22T13:01:00;13.90;99.90
23120;DHT22;11729;50.836;4.330;2023-02-22T13:03:37;13.90;99.90
23120;DHT22;11729;50.836;4.330;2023-02-22T13:06:17;13.90;99.90
23120;DHT22;11729;50.836;4.330;2023-02-22T13:11:46;13.80;99.90
23120;DHT22;11729;50.836;4.330;2023-02-22T13:22:07;13.50;99.90
23120;DHT22;11729;50.836;4.330;2023-02-22T13:27:23;13.50;99.90
23120;DHT22;11729;50.836;4.330;2023-02-22T13:29:56;13.40;99.90
23120;DHT22;11729;50.836;4.330;2023-02-22T13:32:30;13.30;99.90
23120;DHT22;11729;50.836;4.330;2023-02-22T13:38:46;13.30;99.90
23120;DHT22;11729;50.836;4.330;2023-02-22T13:56:45;13.00;99.90
23120;DHT22;11729;50.836;4.330;2023-02-22T13:59:40;13.00;99.90
23120;DHT22;11729;50.836;4.330;2023-02-22T14:02:06;12.90;99.90
23120;DHT22;11729;50.836;4.330;2023-02-22T14:04:38;12.80;99.90
23120;DHT22;11729;50.836;4.330;2023-02-22T14:09:54;13.10;99.90
23120;DHT22;11729;50.836;4.330;2023-02-22T14:17:36;13.00;99.90
23120;DHT22;11729;50.836;4.330;2023-02-22T14:20:25;12.80;99.90
23120;DHT22;11729;50.836;4.330;2023-02-22T14:25:53;12.60;99.90
23120;DHT22;11729;50.836;4.330;2023-02-22T14:28:42;12.60;99.90
23120;DHT22;11729;50.836;4.330;2023-02-22T14:31:15;12.50;99.90
23120;DHT22;11729;50.836;4.330;2023-02-22T14:34:03;12.60;99.90
23120;DHT22;11729;50.836;4.330;2023-02-22T14:39:10;12.30;99.90
23120;DHT22;11729;50.836;4.330;2023-02-22T14:41:39;12.30;99.90
23120;DHT22;11729;50.836;4.330;2023-02-22T14:44:07;12.20;99.90
23120;DHT22;11729;50.836;4.330;2023-02-22T14:46:40;12.40;99.90
23120;DHT22;11729;50.836;4.330;2023-02-22T14:49:08;12.40;99.90
23120;DHT22;11729;50.836;4.330;2023-02-22T14:51:49;12.30;99.90
23120;DHT22;11729;50.836;4.330;2023-02-22T14:54:26;12.30;99.90
23120;DHT22;11729;50.836;4.330;2023-02-22T14:57:24;12.20;99.90
23120;DHT22;11729;50.836;4.330;2023-02-22T15:02:38;12.10;99.90
23120;DHT22;11729;50.836;4.330;2023-02-22T15:05:05;12.00;99.90
23120;DHT22;11729;50.836;4.330;2023-02-22T15:07:31;12.20;99.90
23120;DHT22;11729;50.836;4.330;2023-02-22T15:12:49;12.30;99.90
23120;DHT22;11729;50.836;4.330;2023-02-22T15:15:21;12.20;99.90
23120;DHT22;11729;50.836;4.330;2023-02-22T15:17:52;12.00;99.90
23120;DHT22;11729;50.836;4.330;2023-02-22T15:20:18;12.00;99.90
23120;DHT22;11729;50.836;4.330;2023-02-22T15:22:45;12.10;99.90
23120;DHT22;11729;50.836;4.330;2023-02-22T15:25:12;11.90;99.90
23120;DHT22;11729;50.836;4.330;2023-02-22T15:27:40;11.90;99.90
23120;DHT22;11729;50.836;4.330;2023-02-22T15:30:24;11.80;99.90
23120;DHT22;11729;50.836;4.330;2023-02-22T15:32:54;11.90;99.90
23120;DHT22;11729;50.836;4.330;2023-02-22T15:35:26;11.80;99.90
23120;DHT22;11729;50.836;4.330;2023-02-22T15:38:01;11.80;99.90
23120;DHT22;11729;50.836;4.330;2023-02-22T15:40:29;11.80;99.90
23120;DHT22;11729;50.836;4.330;2023-02-22T15:43:04;11.70;99.90
23120;DHT22;11729;50.836;4.330;2023-02-22T15:45:33;11.60;99.90
23120;DHT22;11729;50.836;4.330;2023-02-22T15:47:59;11.60;99.90
23120;DHT22;11729;50.836;4.330;2023-02-22T15:50:31;11.60;99.90
23120;DHT22;11729;50.836;4.330;2023-02-22T15:55:44;11.40;99.90
23120;DHT22;11729;50.836;4.330;2023-02-22T16:00:42;11.50;99.90
23120;DHT22;11729;50.836;4.330;2023-02-22T16:03:15;11.40;99.90
23120;DHT22;11729;50.836;4.330;2023-02-22T16:05:46;11.30;99.90
23120;DHT22;11729;50.836;4.330;2023-02-22T16:11:05;11.40;99.90
23120;DHT22;11729;50.836;4.330;2023-02-22T16:13:38;11.10;99.90
23120;DHT22;11729;50.836;4.330;2023-02-22T16:16:21;11.10;99.90
23120;DHT22;11729;50.836;4.330;2023-02-22T16:18:49;11.10;99.90
23120;DHT22;11729;50.836;4.330;2023-02-22T16:21:20;11.10;99.90
23120;DHT22;11729;50.836;4.330;2023-02-22T16:23:50;11.10;99.90
23120;DHT22;11729;50.836;4.330;2023-02-22T16:26:21;11.10;99.90
23120;DHT22;11729;50.836;4.330;2023-02-22T16:28:50;11.00;99.90
23120;DHT22;11729;50.836;4.330;2023-02-22T16:31:22;11.00;99.90
23120;DHT22;11729;50.836;4.330;2023-02-22T16:33:51;11.10;99.90
23120;DHT22;11729;50.836;4.330;2023-02-22T16:36:23;11.10;99.90
23120;DHT22;11729;50.836;4.330;2023-02-22T16:38:49;11.00;99.90
23120;DHT22;11729;50.836;4.330;2023-02-22T16:41:16;11.00;99.90
23120;DHT22;11729;50.836;4.330;2023-02-22T16:43:46;11.00;99.90
23120;DHT22;11729;50.836;4.330;2023-02-22T16:46:16;10.90;99.90
23120;DHT22;11729;50.836;4.330;2023-02-22T16:48:43;11.00;99.90
23120;DHT22;11729;50.836;4.330;2023-02-22T16:51:24;10.90;99.90
23120;DHT22;11729;50.836;4.330;2023-02-22T16:53:54;11.00;99.90
23120;DHT22;11729;50.836;4.330;2023-02-22T16:56:25;11.00;99.90
23120;DHT22;11729;50.836;4.330;2023-02-22T16:58:52;11.00;99.90
23120;DHT22;11729;50.836;4.330;2023-02-22T17:01:19;11.00;99.90
23120;DHT22;11729;50.836;4.330;2023-02-22T17:03:47;11.00;99.90
23120;DHT22;11729;50.836;4.330;2023-02-22T17:06:15;11.10;99.90
23120;DHT22;11729;50.836;4.330;2023-02-22T17:08:41;11.10;99.90
23120;DHT22;11729;50.836;4.330;2023-02-22T17:11:08;11.00;99.90
23120;DHT22;11729;50.836;4.330;2023-02-22T17:13:35;11.00;99.90
23120;DHT22;11729;50.836;4.330;2023-02-22T17:16:01;11.10;99.90
23120;DHT22;11729;50.836;4.330;2023-02-22T17:18:28;11.10;99.90
23120;DHT22;11729;50.836;4.330;2023-02-22T17:20:58;11.10;99.90
23120;DHT22;11729;50.836;4.330;2023-02-22T17:23:24;11.20;99.90
23120;DHT22;11729;50.836;4.330;2023-02-22T17:25:54;11.10;99.90
23120;DHT22;11729;50.836;4.330;2023-02-22T17:28:20;11.10;99.90
23120;DHT22;11729;50.836;4.330;2023-02-22T17:30:48;11.10;99.90
23120;DHT22;11729;50.836;4.330;2023-02-22T17:33:18;11.10;99.90
23120;DHT22;11729;50.836;4.330;2023-02-22T17:35:47;10.90;99.90
23120;DHT22;11729;50.836;4.330;2023-02-22T17:38:14;11.00;99.90
23120;DHT22;11729;50.836;4.330;2023-02-22T17:40:43;11.00;99.90
23120;DHT22;11729;50.836;4.330;2023-02-22T17:43:10;10.90;99.90
23120;DHT22;11729;50.836;4.330;2023-02-22T17:45:39;10.90;99.90
23120;DHT22;11729;50.836;4.330;2023-02-22T17:48:07;11.00;99.90
23120;DHT22;11729;50.836;4.330;2023-02-22T17:50:36;11.00;99.90
23120;DHT22;11729;50.836;4.330;2023-02-22T17:53:02;11.00;99.90
23120;DHT22;11729;50.836;4.330;2023-02-22T17:55:28;11.00;99.90
23120;DHT22;11729;50.836;4.330;2023-02-22T17:57:55;11.00;99.90
23120;DHT22;11729;50.836;4.330;2023-02-22T18:00:28;11.00;99.90
23120;DHT22;11729;50.836;4.330;2023-02-22T18:03:00;11.00;99.90
23120;DHT22;11729;50.836;4.330;2023-02-22T18:05:26;10.80;99.90
23120;DHT22;11729;50.836;4.330;2023-02-22T18:07:52;10.90;99.90
23120;DHT22;11729;50.836;4.330;2023-02-22T18:10:18;10.80;99.90